createdAt,value
2023-03-26T00:01:51.932Z,9.02
2023-03-26T00:04:22.041Z,8.95
2023-03-26T00:06:50.294Z,9.45
2023-03-26T00:09:18.817Z,10.00
2023-03-26T00:11:46.777Z,9.02
2023-03-26T00:14:17.456Z,8.93
2023-03-26T00:16:45.599Z,9.75
2023-03-26T00:19:13.871Z,8.70
2023-03-26T00:21:48.877Z,9.32
2023-03-26T00:24:17.507Z,9.27
2023-03-26T00:26:48.451Z,10.05
2023-03-26T00:29:19.824Z,9.18
2023-03-26T00:31:47.396Z,9.45
2023-03-26T00:34:18.637Z,9.85
2023-03-26T00:36:47.335Z,8.82
2023-03-26T00:39:15.323Z,9.55
2023-03-26T00:41:43.260Z,9.70
2023-03-26T00:44:11.472Z,9.32
2023-03-26T00:46:39.346Z,9.43
2023-03-26T00:49:10.720Z,9.13
2023-03-26T00:51:42.312Z,8.63
2023-03-26T00:54:09.792Z,8.60
2023-03-26T00:56:38.748Z,8.50
2023-03-26T00:59:06.429Z,8.75
2023-03-26T01:01:34.015Z,8.43
2023-03-26T01:04:27.531Z,8.65
2023-03-26T01:07:02.874Z,7.90
2023-03-26T01:09:42.984Z,8.90
2023-03-26T01:12:17.008Z,8.38
2023-03-26T01:14:47.623Z,7.38
2023-03-26T01:17:16.114Z,8.07
2023-03-26T01:20:26.647Z,8.48
2023-03-26T01:23:05.352Z,7.97
2023-03-26T01:25:43.631Z,7.88
2023-03-26T01:28:12.580Z,7.28
2023-03-26T01:30:58.641Z,7.03
2023-03-26T01:34:00.211Z,7.95
2023-03-26T01:36:46.789Z,6.75
2023-03-26T01:39:28.226Z,7.72
2023-03-26T01:42:07.045Z,8.60
2023-03-26T01:44:56.445Z,7.60
2023-03-26T01:47:24.705Z,6.65
2023-03-26T01:49:52.342Z,7.25
2023-03-26T01:52:25.303Z,7.35
2023-03-26T01:54:56.695Z,6.70
2023-03-26T01:57:32.149Z,7.57
2023-03-26T02:00:19.359Z,7.10
2023-03-26T02:03:18.112Z,6.82
2023-03-26T02:06:09.809Z,6.80
2023-03-26T02:08:52.292Z,7.28
2023-03-26T02:11:21.612Z,6.35
2023-03-26T02:13:51.836Z,7.40
2023-03-26T02:16:21.172Z,6.90
2023-03-26T02:18:55.634Z,6.43
2023-03-26T02:21:26.011Z,6.68
2023-03-26T02:24:03.593Z,7.07
2023-03-26T02:26:37.726Z,6.70
2023-03-26T02:29:13.524Z,6.40
2023-03-26T02:31:43.894Z,5.68
2023-03-26T02:34:11.376Z,6.82
2023-03-26T02:36:43.093Z,5.05
2023-03-26T02:39:14.259Z,6.03
2023-03-26T02:41:44.640Z,6.53
2023-03-26T02:44:13.061Z,6.70
2023-03-26T02:47:03.644Z,5.57
2023-03-26T02:49:50.072Z,6.70
2023-03-26T02:52:37.432Z,5.13
2023-03-26T02:55:05.347Z,5.72
2023-03-26T02:57:33.563Z,6.57
2023-03-26T03:00:17.121Z,5.53
2023-03-26T03:03:04.624Z,5.53
2023-03-26T03:05:33.481Z,5.80
2023-03-26T03:08:28.583Z,6.32
2023-03-26T03:11:24.884Z,5.90
2023-03-26T03:13:54.095Z,5.93
2023-03-26T03:16:29.660Z,5.18
2023-03-26T03:18:59.990Z,5.53
2023-03-26T03:21:36.140Z,6.32
2023-03-26T03:24:04.105Z,5.70
2023-03-26T03:26:36.468Z,6.03
2023-03-26T03:29:16.377Z,6.25
2023-03-26T03:31:44.003Z,6.00
2023-03-26T03:34:25.526Z,5.63
2023-03-26T03:36:53.247Z,5.40
2023-03-26T03:39:32.920Z,5.57
2023-03-26T03:42:00.444Z,5.53
2023-03-26T03:44:28.098Z,5.75
2023-03-26T03:46:56.855Z,6.00
2023-03-26T03:49:24.694Z,5.53
2023-03-26T03:51:52.236Z,6.13
2023-03-26T03:54:35.181Z,4.60
2023-03-26T03:57:22.956Z,5.10
2023-03-26T03:59:58.490Z,6.18
2023-03-26T04:02:34.806Z,6.28
2023-03-26T04:05:06.405Z,5.25
2023-03-26T04:07:35.353Z,6.70
2023-03-26T04:10:09.561Z,4.68
2023-03-26T04:12:55.811Z,5.95
2023-03-26T04:15:40.793Z,5.70
2023-03-26T04:18:12.305Z,6.20
2023-03-26T04:20:46.361Z,5.05
2023-03-26T04:23:19.626Z,5.65
2023-03-26T04:28:54.378Z,4.57
2023-03-26T04:31:31.986Z,5.40
2023-03-26T04:34:13.649Z,5.63
2023-03-26T04:36:54.548Z,5.63
2023-03-26T04:39:29.394Z,5.07
2023-03-26T04:42:15.420Z,5.15
2023-03-26T04:44:59.699Z,4.75
2023-03-26T04:47:29.045Z,5.45
2023-03-26T04:49:56.655Z,6.13
2023-03-26T04:52:24.414Z,5.13
2023-03-26T04:54:54.758Z,5.32
2023-03-26T04:57:33.900Z,5.15
2023-03-26T05:00:17.564Z,4.97
2023-03-26T05:02:54.053Z,6.10
2023-03-26T05:05:22.677Z,5.82
2023-03-26T05:07:51.375Z,5.13
2023-03-26T05:10:22.020Z,5.70
2023-03-26T05:12:57.924Z,6.43
2023-03-26T05:15:37.114Z,5.95
2023-03-26T05:18:10.947Z,6.53
2023-03-26T05:20:43.483Z,6.25
2023-03-26T05:23:11.294Z,6.10
2023-03-26T05:25:43.174Z,6.10
2023-03-26T05:28:23.331Z,5.38
2023-03-26T05:30:58.107Z,5.25
2023-03-26T05:33:29.112Z,5.18
2023-03-26T05:36:17.287Z,5.70
2023-03-26T05:38:50.025Z,5.05
2023-03-26T05:41:40.875Z,5.00
2023-03-26T05:44:08.441Z,5.38
2023-03-26T05:46:36.925Z,5.47
2023-03-26T05:49:04.571Z,5.85
2023-03-26T05:51:35.307Z,4.43
2023-03-26T05:54:26.209Z,5.05
2023-03-26T05:57:08.827Z,5.60
2023-03-26T05:59:58.578Z,4.57
2023-03-26T06:02:46.730Z,5.00
2023-03-26T06:05:37.196Z,4.80
2023-03-26T06:08:14.891Z,5.75
2023-03-26T06:10:50.816Z,5.38
2023-03-26T06:13:19.099Z,5.53
2023-03-26T06:15:49.016Z,5.55
2023-03-26T06:21:16.934Z,6.15
2023-03-26T06:23:51.642Z,6.25
2023-03-26T06:26:48.577Z,5.90
2023-03-26T06:29:21.761Z,6.05
2023-03-26T06:32:16.373Z,5.93
2023-03-26T06:34:51.500Z,5.90
2023-03-26T06:37:19.102Z,6.75
2023-03-26T06:39:48.011Z,6.13
2023-03-26T06:42:18.237Z,6.45
2023-03-26T06:45:27.881Z,5.72
2023-03-26T06:48:28.092Z,5.45
2023-03-26T06:51:18.538Z,5.85
2023-03-26T06:54:04.892Z,6.18
2023-03-26T06:56:51.173Z,5.40
2023-03-26T06:59:37.238Z,6.18
2023-03-26T07:02:34.032Z,5.45
2023-03-26T07:05:20.724Z,6.25
2023-03-26T07:08:09.036Z,6.43
2023-03-26T07:10:55.308Z,6.20
2023-03-26T07:13:48.243Z,6.20
2023-03-26T07:16:46.620Z,5.65
2023-03-26T07:19:32.149Z,5.80
2023-03-26T07:22:00.957Z,5.57
2023-03-26T07:25:01.673Z,6.18
2023-03-26T07:28:13.277Z,5.72
2023-03-26T07:31:34.799Z,6.15
2023-03-26T07:34:59.146Z,5.70
2023-03-26T07:38:19.562Z,6.10
2023-03-26T07:41:54.588Z,6.03
2023-03-26T07:45:20.898Z,6.53
2023-03-26T07:48:02.150Z,5.60
2023-03-26T07:51:00.106Z,6.03
2023-03-26T07:53:49.758Z,5.88
2023-03-26T07:56:59.474Z,6.63
2023-03-26T08:00:22.275Z,5.82
2023-03-26T08:06:39.075Z,5.35
2023-03-26T08:09:35.820Z,4.90
2023-03-26T08:12:51.052Z,5.78
2023-03-26T08:15:39.208Z,5.50
2023-03-26T08:18:45.249Z,5.07
2023-03-26T08:21:58.056Z,5.20
2023-03-26T08:24:59.310Z,5.25
2023-03-26T08:28:05.236Z,5.50
2023-03-26T08:30:33.129Z,5.18
2023-03-26T08:33:17.992Z,5.00
2023-03-26T08:35:46.928Z,5.65
2023-03-26T08:38:19.609Z,5.70
2023-03-26T08:41:05.918Z,4.78
2023-03-26T08:44:14.990Z,5.15
2023-03-26T08:47:18.430Z,4.10
2023-03-26T08:50:16.728Z,5.13
2023-03-26T08:53:05.694Z,4.90
2023-03-26T08:55:51.729Z,5.43
2023-03-26T08:58:31.448Z,5.35
2023-03-26T09:01:23.931Z,4.68
2023-03-26T09:04:32.329Z,4.78
2023-03-26T09:07:38.256Z,4.57
2023-03-26T09:11:05.038Z,5.68
2023-03-26T09:14:17.140Z,5.53
2023-03-26T09:17:05.841Z,4.43
2023-03-26T09:20:26.650Z,4.78
2023-03-26T09:23:08.908Z,4.25
2023-03-26T09:26:13.900Z,4.28
2023-03-26T09:29:06.446Z,4.28
2023-03-26T09:31:51.968Z,5.65
2023-03-26T09:34:51.689Z,4.80
2023-03-26T09:37:56.140Z,4.82
2023-03-26T09:41:16.292Z,5.20
2023-03-26T09:43:59.029Z,4.75
2023-03-26T09:46:37.855Z,4.65
2023-03-26T09:49:38.931Z,4.38
2023-03-26T09:52:27.242Z,4.53
2023-03-26T09:55:21.101Z,5.88
2023-03-26T09:58:20.006Z,4.10
2023-03-26T10:01:21.135Z,2.45
2023-03-26T10:04:12.324Z,2.33
2023-03-26T10:06:54.966Z,2.80
2023-03-26T10:09:37.648Z,2.10
2023-03-26T10:12:41.841Z,2.33
2023-03-26T10:15:54.350Z,2.75
2023-03-26T10:18:59.472Z,2.70
2023-03-26T10:21:36.794Z,2.80
2023-03-26T10:24:28.879Z,2.90
2023-03-26T10:27:32.187Z,1.73
2023-03-26T10:31:08.236Z,1.70
2023-03-26T10:34:28.919Z,1.88
2023-03-26T10:37:30.454Z,2.00
2023-03-26T10:40:27.406Z,2.00
2023-03-26T10:43:29.466Z,2.58
2023-03-26T10:46:17.571Z,1.50
2023-03-26T10:49:54.262Z,1.42
2023-03-26T10:52:27.863Z,1.10
2023-03-26T10:55:25.424Z,1.35
2023-03-26T10:58:01.216Z,0.80
2023-03-26T11:00:30.136Z,1.10
2023-03-26T11:03:18.277Z,1.15
2023-03-26T11:06:04.519Z,0.85
2023-03-26T11:08:39.065Z,1.60
2023-03-26T11:11:38.680Z,1.00
2023-03-26T11:14:46.294Z,1.50
2023-03-26T11:17:39.494Z,1.30
2023-03-26T11:20:27.463Z,1.30
2023-03-26T11:23:19.907Z,2.00
2023-03-26T11:26:08.570Z,2.05
2023-03-26T11:29:03.779Z,1.88
2023-03-26T11:32:13.776Z,1.30
2023-03-26T11:35:04.262Z,1.88
2023-03-26T11:37:42.475Z,1.50
2023-03-26T11:40:21.589Z,1.40
2023-03-26T11:42:57.957Z,1.30
2023-03-26T11:45:31.887Z,1.42
2023-03-26T11:48:26.056Z,1.08
2023-03-26T11:51:06.136Z,1.63
2023-03-26T11:53:39.666Z,1.88
2023-03-26T11:56:34.055Z,1.40
2023-03-26T11:59:11.501Z,1.60
2023-03-26T12:02:09.889Z,1.60
2023-03-26T12:04:43.470Z,1.98
2023-03-26T12:07:33.906Z,2.00
2023-03-26T12:10:18.707Z,1.90
2023-03-26T12:12:48.179Z,2.05
2023-03-26T12:15:19.490Z,1.80
2023-03-26T12:17:56.419Z,1.75
2023-03-26T12:20:25.101Z,1.52
2023-03-26T12:23:00.776Z,1.40
2023-03-26T12:25:35.335Z,1.63
2023-03-26T12:28:22.239Z,1.70
2023-03-26T12:31:02.790Z,1.30
2023-03-26T12:33:38.788Z,1.55
2023-03-26T12:36:36.627Z,1.55
2023-03-26T12:40:07.330Z,1.80
2023-03-26T12:44:43.337Z,1.30
2023-03-26T12:45:40.780Z,1.70
2023-03-26T12:48:15.638Z,2.00
2023-03-26T12:51:21.190Z,2.35
2023-03-26T12:54:15.405Z,2.40
2023-03-26T12:56:49.903Z,2.28
2023-03-26T12:59:58.721Z,2.50
2023-03-26T13:03:19.330Z,2.17
2023-03-26T13:06:05.653Z,2.65
2023-03-26T13:09:18.163Z,2.50
2023-03-26T13:12:14.414Z,3.60
2023-03-26T13:15:22.075Z,3.33
2023-03-26T13:18:11.115Z,2.55
2023-03-26T13:20:57.205Z,3.38
2023-03-26T13:23:45.370Z,3.70
2023-03-26T13:26:33.343Z,5.22
2023-03-26T13:29:57.771Z,6.40
2023-03-26T13:33:07.135Z,6.03
2023-03-26T13:36:21.642Z,7.22
2023-03-26T13:39:17.055Z,6.30
2023-03-26T13:42:21.914Z,7.15
2023-03-26T13:45:06.500Z,8.48
2023-03-26T13:47:42.476Z,8.68
2023-03-26T13:50:28.355Z,7.53
2023-03-26T13:53:21.489Z,8.38
2023-03-26T13:55:57.014Z,7.75
2023-03-26T13:58:44.857Z,7.47
2023-03-26T14:01:34.050Z,7.82
2023-03-26T14:04:37.383Z,6.68
2023-03-26T14:07:26.255Z,5.38
2023-03-26T14:10:06.209Z,6.70
2023-03-26T14:13:05.629Z,5.93
2023-03-26T14:16:27.964Z,6.30
2023-03-26T14:19:36.038Z,6.75
2023-03-26T14:22:59.516Z,6.05
2023-03-26T14:25:57.144Z,6.75
2023-03-26T14:28:48.410Z,6.35
2023-03-26T14:31:42.905Z,6.40
2023-03-26T14:34:23.501Z,6.63
2023-03-26T14:37:29.938Z,6.28
2023-03-26T14:40:47.541Z,5.90
2023-03-26T14:43:55.731Z,6.15
2023-03-26T14:46:39.835Z,5.78
2023-03-26T14:49:29.398Z,5.78
2023-03-26T14:52:28.319Z,5.70
2023-03-26T14:55:03.486Z,5.25
2023-03-26T14:58:03.797Z,4.93
2023-03-26T15:01:23.067Z,5.50
2023-03-26T15:04:38.435Z,6.10
2023-03-26T15:07:44.551Z,5.32
2023-03-26T15:10:49.656Z,4.10
2023-03-26T15:13:48.956Z,5.05
2023-03-26T15:16:50.033Z,4.90
2023-03-26T15:19:47.333Z,4.97
2023-03-26T15:22:51.038Z,4.30
2023-03-26T15:25:22.081Z,4.57
2023-03-26T15:29:16.960Z,4.55
2023-03-26T15:32:09.338Z,4.80
2023-03-26T15:35:27.662Z,4.03
2023-03-26T15:38:25.752Z,3.08
2023-03-26T15:41:21.346Z,3.60
2023-03-26T15:44:23.265Z,3.67
2023-03-26T15:47:13.238Z,3.50
2023-03-26T15:49:54.358Z,3.33
2023-03-26T15:52:37.191Z,3.03
2023-03-26T15:55:19.020Z,3.25
2023-03-26T15:58:06.624Z,3.28
2023-03-26T16:00:47.952Z,3.00
2023-03-26T16:03:39.686Z,2.83
2023-03-26T16:06:31.176Z,3.05
2023-03-26T16:09:18.187Z,3.47
2023-03-26T16:11:58.416Z,3.25
2023-03-26T16:14:35.548Z,4.05
2023-03-26T16:17:17.427Z,3.30
2023-03-26T16:20:32.972Z,2.75
2023-03-26T16:23:04.583Z,3.15
2023-03-26T16:25:57.179Z,3.40
2023-03-26T16:28:32.603Z,2.75
2023-03-26T16:31:39.438Z,2.55
2023-03-26T16:34:10.230Z,2.97
2023-03-26T16:36:50.119Z,2.85
2023-03-26T16:39:22.822Z,3.60
2023-03-26T16:42:30.399Z,3.30
2023-03-26T16:45:49.095Z,3.33
2023-03-26T16:48:28.866Z,2.92
2023-03-26T16:51:57.873Z,3.30
2023-03-26T16:54:54.185Z,3.25
2023-03-26T16:57:45.420Z,3.35
2023-03-26T17:00:55.720Z,3.15
2023-03-26T17:03:52.181Z,2.90
2023-03-26T17:07:03.520Z,3.15
2023-03-26T17:09:37.898Z,2.72
2023-03-26T17:12:20.710Z,2.60
2023-03-26T17:15:10.489Z,2.92
2023-03-26T17:18:13.178Z,3.00
2023-03-26T17:21:46.121Z,2.90
2023-03-26T17:24:44.048Z,2.90
2023-03-26T17:27:53.251Z,2.47
2023-03-26T17:30:30.785Z,3.28
2023-03-26T17:33:03.920Z,2.78
2023-03-26T17:36:11.915Z,2.30
2023-03-26T17:38:39.561Z,2.85
2023-03-26T17:41:56.340Z,2.80
2023-03-26T17:44:38.499Z,3.78
2023-03-26T17:47:20.087Z,2.13
2023-03-26T17:49:55.018Z,2.40
2023-03-26T17:52:33.441Z,2.60
2023-03-26T17:55:02.013Z,2.45
2023-03-26T17:57:42.780Z,2.03
2023-03-26T18:00:34.985Z,2.80
2023-03-26T18:03:39.874Z,2.42
2023-03-26T18:06:17.548Z,2.42
2023-03-26T18:09:12.078Z,2.30
2023-03-26T18:12:36.986Z,2.42
2023-03-26T18:15:56.281Z,2.42
2023-03-26T18:18:43.328Z,2.42
2023-03-26T18:21:38.848Z,3.05
2023-03-26T18:24:15.643Z,2.58
2023-03-26T18:26:49.608Z,2.25
2023-03-26T18:29:19.894Z,2.40
2023-03-26T18:31:54.246Z,2.67
2023-03-26T18:34:24.525Z,2.05
2023-03-26T18:37:04.693Z,1.77
2023-03-26T18:39:32.796Z,2.38
2023-03-26T18:42:00.797Z,2.30
2023-03-26T18:44:31.286Z,2.70
2023-03-26T18:47:04.922Z,2.30
2023-03-26T18:49:32.824Z,2.25
2023-03-26T18:52:01.419Z,2.40
2023-03-26T18:54:36.213Z,2.15
2023-03-26T18:57:19.462Z,2.70
2023-03-26T18:59:56.050Z,2.22
2023-03-26T19:02:26.284Z,2.85
2023-03-26T19:04:56.686Z,2.33
2023-03-26T19:07:27.142Z,2.75
2023-03-26T19:09:56.821Z,2.47
2023-03-26T19:12:36.056Z,2.88
2023-03-26T19:15:19.918Z,2.95
2023-03-26T19:17:56.819Z,2.35
2023-03-26T19:20:29.201Z,2.15
2023-03-26T19:23:01.356Z,2.20
2023-03-26T19:25:42.683Z,2.65
2023-03-26T19:28:25.934Z,2.90
2023-03-26T19:31:14.722Z,2.58
2023-03-26T19:33:44.408Z,1.92
2023-03-26T19:36:17.846Z,2.00
2023-03-26T19:38:48.429Z,1.98
2023-03-26T19:41:23.888Z,2.42
2023-03-26T19:43:58.225Z,2.47
2023-03-26T19:46:28.941Z,2.35
2023-03-26T19:48:58.116Z,2.50
2023-03-26T19:51:37.631Z,2.30
2023-03-26T19:54:19.870Z,2.28
2023-03-26T19:56:50.126Z,2.75
2023-03-26T19:59:17.835Z,2.47
2023-03-26T20:01:45.544Z,2.40
2023-03-26T20:04:13.685Z,2.70
2023-03-26T20:06:44.128Z,2.60
2023-03-26T20:09:13.666Z,1.95
2023-03-26T20:11:41.727Z,2.33
2023-03-26T20:14:16.888Z,2.90
2023-03-26T20:16:46.146Z,2.67
2023-03-26T20:19:15.401Z,2.08
2023-03-26T20:21:44.901Z,3.05
2023-03-26T20:24:17.603Z,2.60
2023-03-26T20:26:48.329Z,2.78
2023-03-26T20:29:16.942Z,2.50
2023-03-26T20:31:45.309Z,2.67
2023-03-26T20:34:23.370Z,3.00
2023-03-26T20:36:56.197Z,2.47
2023-03-26T20:39:25.043Z,3.03
2023-03-26T20:41:55.184Z,2.70
2023-03-26T20:44:23.357Z,2.00
2023-03-26T20:46:51.610Z,2.90
2023-03-26T20:49:22.344Z,2.10
2023-03-26T20:51:57.487Z,2.23
2023-03-26T20:54:35.860Z,1.70
2023-03-26T20:57:03.914Z,2.30
2023-03-26T20:59:31.743Z,2.50
2023-03-26T21:01:59.525Z,2.13
2023-03-26T21:04:27.894Z,2.70
2023-03-26T21:07:07.196Z,2.38
2023-03-26T21:09:44.789Z,2.47
2023-03-26T21:12:33.450Z,2.30
2023-03-26T21:15:03.357Z,2.67
2023-03-26T21:17:35.549Z,3.05
2023-03-26T21:20:13.487Z,3.88
2023-03-26T21:23:23.641Z,2.75
2023-03-26T21:26:07.142Z,3.17
2023-03-26T21:28:49.105Z,2.65
2023-03-26T21:31:20.433Z,2.97
2023-03-26T21:33:49.652Z,2.40
2023-03-26T21:36:19.826Z,3.15
2023-03-26T21:38:48.139Z,2.40
2023-03-26T21:41:35.887Z,2.80
2023-03-26T21:44:03.793Z,2.67
2023-03-26T21:46:31.928Z,2.80
2023-03-26T21:49:00.306Z,2.67
2023-03-26T21:51:29.239Z,2.97
2023-03-26T21:53:57.397Z,2.38
2023-03-26T21:56:56.021Z,2.35
2023-03-26T21:59:36.713Z,2.58
2023-03-26T22:02:34.629Z,2.30
2023-03-26T22:06:01.280Z,3.15
2023-03-26T22:08:38.971Z,2.72
2023-03-26T22:11:10.288Z,2.78
2023-03-26T22:13:38.987Z,2.90
2023-03-26T22:16:09.396Z,2.45
2023-03-26T22:18:36.957Z,2.30
2023-03-26T22:21:05.860Z,2.47
2023-03-26T22:23:36.373Z,2.47
2023-03-26T22:26:06.173Z,2.30
2023-03-26T22:28:33.641Z,2.70
2023-03-26T22:31:08.551Z,2.47
2023-03-26T22:33:36.403Z,2.33
2023-03-26T22:36:04.435Z,2.10
2023-03-26T22:38:31.958Z,1.90
2023-03-26T22:40:59.481Z,2.70
2023-03-26T22:43:27.860Z,2.00
2023-03-26T22:45:56.538Z,2.40
2023-03-26T22:48:24.655Z,2.08
2023-03-26T22:51:01.810Z,1.98
2023-03-26T22:53:30.850Z,2.05
2023-03-26T22:56:00.009Z,2.10
2023-03-26T22:58:28.273Z,2.15
2023-03-26T23:01:24.150Z,2.00
2023-03-26T23:03:52.046Z,2.40
2023-03-26T23:06:19.733Z,3.47
2023-03-26T23:08:47.496Z,3.40
2023-03-26T23:11:19.630Z,2.08
2023-03-26T23:13:48.009Z,2.30
2023-03-26T23:16:17.496Z,2.33
2023-03-26T23:18:45.200Z,2.13
2023-03-26T23:21:22.038Z,2.38
2023-03-26T23:23:52.117Z,2.65
2023-03-26T23:26:20.028Z,2.88
2023-03-26T23:28:47.905Z,2.22
2023-03-26T23:31:15.556Z,2.08
2023-03-26T23:33:46.702Z,2.38
2023-03-26T23:36:18.683Z,2.70
2023-03-26T23:38:48.456Z,2.70
2023-03-26T23:41:22.057Z,2.05
2023-03-26T23:43:54.472Z,2.35
2023-03-26T23:46:34.629Z,2.60
2023-03-26T23:49:03.822Z,2.40
2023-03-26T23:51:32.682Z,2.25
2023-03-26T23:54:04.468Z,2.33
2023-03-26T23:56:32.081Z,2.28
2023-03-26T23:59:00.527Z,2.20
